Time;durP1;ratioP1;P1;durP2;ratioP2;P2;SDS_P1;SDS_P2;PMS_P1;PMS_P2;Temp;Humidity;BMP_temperature;BMP_pressure;BME280_temperature;BME280_humidity;BME280_pressure;Samples;Min_cycle;Max_cycle;Signal;HPM_P1;HPM_P2
2022/06/16 00:01:47;;;;;;;9.93;4.85;;;11.20;99.90;;;;;;5073899;28;20786;-43
2022/06/16 00:04:13;;;;;;;10.15;4.70;;;12.60;99.90;;;;;;5073407;28;20130;-42
2022/06/16 00:06:39;;;;;;;8.02;4.80;;;12.60;99.90;;;;;;5073038;28;20048;-42
2022/06/16 00:09:05;;;;;;;10.07;4.95;;;13.10;99.90;;;;;;5073807;28;20388;-44
2022/06/16 00:11:30;;;;;;;7.85;5.13;;;14.30;99.90;;;;;;5073933;28;20413;-43
2022/06/16 00:13:58;;;;;;;10.25;4.93;;;12.30;99.90;;;;;;5073374;28;20043;-42
2022/06/16 00:16:23;;;;;;;9.75;4.35;;;12.20;99.90;;;;;;5073633;28;20028;-43
2022/06/16 00:18:50;;;;;;;10.05;4.13;;;13.70;99.90;;;;;;5072020;28;20559;-43
2022/06/16 00:21:18;;;;;;;10.88;4.82;;;12.30;99.90;;;;;;5072457;28;20044;-43
2022/06/16 00:23:44;;;;;;;9.05;4.32;;;12.20;99.90;;;;;;5073339;28;20075;-42
2022/06/16 00:26:12;;;;;;;8.38;4.13;;;12.70;99.90;;;;;;5073237;28;20035;-44
2022/06/16 00:28:40;;;;;;;7.20;4.15;;;13.00;99.90;;;;;;5072621;28;20036;-42
2022/06/16 00:31:07;;;;;;;8.38;4.07;;;12.90;99.90;;;;;;5071645;28;20740;-42
2022/06/16 00:33:33;;;;;;;8.15;4.47;;;12.20;99.90;;;;;;5071828;28;20051;-42
2022/06/16 00:35:59;;;;;;;10.95;4.80;;;11.90;99.90;;;;;;5072019;28;20375;-43
2022/06/16 00:38:26;;;;;;;10.55;4.80;;;12.00;99.90;;;;;;5071856;28;20130;-43
2022/06/16 00:40:52;;;;;;;9.90;5.18;;;11.70;99.90;;;;;;5072827;28;20128;-43
2022/06/16 00:43:20;;;;;;;8.85;4.88;;;14.20;99.90;;;;;;5072143;28;20496;-42
2022/06/16 00:45:55;;;;;;;8.50;5.07;;;11.80;99.90;;;;;;5071301;28;20511;-42
2022/06/16 00:48:41;;;;;;;10.25;4.90;;;11.70;99.90;;;;;;5071585;28;20051;-44
2022/06/16 00:51:34;;;;;;;8.15;4.43;;;11.90;99.90;;;;;;5071891;28;20455;-42
2022/06/16 00:54:21;;;;;;;9.65;4.38;;;11.70;99.90;;;;;;5069659;28;20035;-42
2022/06/16 00:56:48;;;;;;;8.65;4.70;;;11.50;99.90;;;;;;5071029;28;20060;-42
2022/06/16 00:59:14;;;;;;;11.13;4.97;;;12.50;99.90;;;;;;5070964;28;20399;-44
2022/06/16 01:01:43;;;;;;;7.10;4.30;;;11.50;99.90;;;;;;5071371;28;20314;-44
2022/06/16 01:06:54;;;;;;;10.02;5.10;;;11.50;99.90;;;;;;5072319;28;20070;-42
2022/06/16 01:09:24;;;;;;;6.88;4.72;;;11.40;99.90;;;;;;5075297;28;20039;-43
2022/06/16 01:15:08;;;;;;;;;;;11.40;99.90;;;;;;5077128;28;20046;-41
2022/06/16 01:17:50;;;;;;;8.87;5.17;;;11.40;99.90;;;;;;5076256;28;19924;-42
2022/06/16 01:20:20;;;;;;;13.23;5.10;;;11.40;99.90;;;;;;5076774;28;20052;-44
2022/06/16 01:23:23;;;;;;;7.03;4.03;;;11.70;99.90;;;;;;5075750;28;20458;-42
2022/06/16 01:26:08;;;;;;;8.50;4.72;;;11.50;99.90;;;;;;5074646;28;20043;-42
2022/06/16 01:28:55;;;;;;;9.40;4.80;;;11.60;99.90;;;;;;5077223;28;20044;-41
2022/06/16 01:31:28;;;;;;;8.93;4.82;;;11.60;99.90;;;;;;5076830;28;20046;-43
2022/06/16 01:33:57;;;;;;;7.80;4.32;;;12.30;99.90;;;;;;5076358;28;20569;-44
2022/06/16 01:36:38;;;;;;;7.80;4.78;;;11.70;99.90;;;;;;5076335;28;20147;-42
2022/06/16 01:39:34;;;;;;;9.48;4.70;;;12.00;99.90;;;;;;5074952;28;20048;-45
2022/06/16 01:42:15;;;;;;;9.82;4.88;;;11.90;99.90;;;;;;5074946;28;20036;-43
2022/06/16 01:44:56;;;;;;;9.10;5.10;;;11.90;99.90;;;;;;5073182;28;20092;-43
2022/06/16 01:47:27;;;;;;;10.35;4.65;;;11.80;99.90;;;;;;5075524;28;20114;-44
2022/06/16 01:49:59;;;;;;;9.23;4.60;;;11.70;99.90;;;;;;5074245;28;20036;-42
2022/06/16 01:52:32;;;;;;;8.63;4.50;;;13.00;99.90;;;;;;5075004;28;20587;-43
2022/06/16 01:55:07;;;;;;;9.85;4.70;;;11.70;99.90;;;;;;5075620;28;20135;-43
2022/06/16 01:57:44;;;;;;;8.43;4.80;;;12.20;99.90;;;;;;5075017;28;20040;-42
2022/06/16 02:00:27;;;;;;;9.80;4.63;;;11.70;99.90;;;;;;5074608;28;20044;-42
2022/06/16 02:03:05;;;;;;;9.07;4.85;;;11.80;99.90;;;;;;5073838;28;20037;-43
2022/06/16 02:05:45;;;;;;;9.38;4.53;;;11.80;99.90;;;;;;5075251;28;20047;-42
2022/06/16 02:08:16;;;;;;;9.07;4.90;;;11.80;99.90;;;;;;5075214;28;20051;-43
2022/06/16 02:10:53;;;;;;;8.55;4.40;;;11.70;99.90;;;;;;5074898;28;20127;-44
2022/06/16 02:13:26;;;;;;;8.35;4.28;;;11.80;99.90;;;;;;5075381;28;20412;-42
2022/06/16 02:16:06;;;;;;;8.23;4.90;;;12.50;99.90;;;;;;5074347;28;20093;-42
2022/06/16 02:18:38;;;;;;;12.43;4.88;;;11.80;99.90;;;;;;5071682;28;20057;-42
2022/06/16 02:21:13;;;;;;;10.18;5.03;;;11.60;99.90;;;;;;5074544;28;20043;-42
2022/06/16 02:23:41;;;;;;;8.15;4.68;;;11.70;99.90;;;;;;5074211;28;20059;-42
2022/06/16 02:26:07;;;;;;;9.18;4.72;;;11.70;99.90;;;;;;5072734;28;20084;-42
2022/06/16 02:28:54;;;;;;;9.38;4.95;;;13.70;99.90;;;;;;5074133;28;20304;-43
2022/06/16 02:31:44;;;;;;;11.77;4.68;;;11.50;99.90;;;;;;5074059;28;20051;-41
2022/06/16 02:34:11;;;;;;;7.88;4.03;;;11.50;99.90;;;;;;5074497;28;20040;-44
2022/06/16 02:37:15;;;;;;;10.77;5.50;;;12.70;99.90;;;;;;5075678;28;20079;-45
2022/06/16 02:40:09;;;;;;;7.80;4.75;;;11.30;99.90;;;;;;5075085;28;20114;-42
2022/06/16 02:42:52;;;;;;;9.10;4.65;;;11.30;99.90;;;;;;5076273;28;20058;-44
2022/06/16 02:45:45;;;;;;;10.02;5.40;;;11.30;99.90;;;;;;5074868;28;20067;-42
2022/06/16 02:48:21;;;;;;;8.60;5.20;;;11.20;99.90;;;;;;5075280;28;20125;-42
2022/06/16 02:50:53;;;;;;;9.10;5.55;;;11.10;99.90;;;;;;5075289;28;20047;-43
2022/06/16 02:56:31;;;;;;;10.05;4.78;;;11.00;99.90;;;;;;5072939;28;20075;-42
2022/06/16 02:59:02;;;;;;;8.48;4.75;;;11.00;99.90;;;;;;5075038;28;20105;-43
2022/06/16 03:01:30;;;;;;;9.77;5.10;;;13.00;99.90;;;;;;5073751;28;20742;-43
2022/06/16 03:04:09;;;;;;;9.35;5.50;;;11.30;99.90;;;;;;5073333;28;20044;-42
2022/06/16 03:06:35;;;;;;;9.43;4.88;;;12.20;99.90;;;;;;5073856;28;20047;-42
2022/06/16 03:09:01;;;;;;;10.65;5.68;;;10.90;99.90;;;;;;5073926;28;20036;-42
2022/06/16 03:11:29;;;;;;;10.30;5.43;;;11.00;99.90;;;;;;5073575;28;20503;-42
2022/06/16 03:13:55;;;;;;;7.88;4.53;;;12.10;99.90;;;;;;5073357;28;20038;-43
2022/06/16 03:16:21;;;;;;;8.38;5.03;;;11.10;99.90;;;;;;5072704;28;20083;-43
2022/06/16 03:18:47;;;;;;;10.32;6.22;;;12.80;99.90;;;;;;5073608;28;20509;-43
2022/06/16 03:21:13;;;;;;;10.90;5.60;;;11.00;99.90;;;;;;5073726;28;20085;-42
2022/06/16 03:23:38;;;;;;;12.23;7.20;;;11.50;99.90;;;;;;5074117;28;20048;-42
2022/06/16 03:26:04;;;;;;;12.85;6.22;;;12.60;99.90;;;;;;5073463;28;20674;-43
2022/06/16 03:28:30;;;;;;;7.60;5.57;;;10.70;99.90;;;;;;5073690;28;20040;-45
2022/06/16 03:30:58;;;;;;;9.55;6.55;;;11.00;99.90;;;;;;5072347;28;20040;-42
2022/06/16 03:33:23;;;;;;;9.20;6.43;;;12.70;99.90;;;;;;5073022;28;20028;-42
2022/06/16 03:35:49;;;;;;;10.35;6.05;;;11.60;99.90;;;;;;5071971;28;20557;-44
2022/06/16 03:38:20;;;;;;;8.45;5.72;;;11.20;99.90;;;;;;5072598;28;20052;-44
2022/06/16 03:40:46;;;;;;;8.43;5.95;;;10.90;99.90;;;;;;5072463;28;21170;-46
2022/06/16 03:43:12;;;;;;;9.10;5.82;;;11.00;99.90;;;;;;5074152;28;20864;-43
2022/06/16 03:45:39;;;;;;;9.00;6.15;;;11.00;99.90;;;;;;5072334;28;20773;-43
2022/06/16 03:48:06;;;;;;;10.00;6.75;;;10.90;99.90;;;;;;5071677;28;20073;-42
2022/06/16 03:50:32;;;;;;;11.13;6.68;;;10.90;99.90;;;;;;5073265;28;20569;-44
2022/06/16 03:53:00;;;;;;;10.80;5.95;;;13.00;99.90;;;;;;5072892;28;20039;-43
2022/06/16 03:55:25;;;;;;;12.18;5.90;;;11.00;99.90;;;;;;5073824;28;20040;-45
2022/06/16 03:57:52;;;;;;;9.90;7.25;;;12.10;99.90;;;;;;5073458;28;20455;-43
2022/06/16 04:00:20;;;;;;;7.22;6.15;;;11.80;99.90;;;;;;5072672;28;20036;-43
2022/06/16 04:03:59;;;;;;;12.43;6.53;;;11.10;99.90;;;;;;5073770;28;20130;-45
2022/06/16 04:05:37;;;;;;;12.48;6.32;;;11.10;99.90;;;;;;5074281;28;20863;-43
2022/06/16 04:08:05;;;;;;;14.60;7.10;;;11.20;99.90;;;;;;5073006;28;20586;-44
2022/06/16 04:10:31;;;;;;;11.50;5.90;;;11.10;99.90;;;;;;5070801;28;20032;-46
2022/06/16 04:12:57;;;;;;;12.52;6.43;;;11.30;99.90;;;;;;5074543;28;20568;-44
2022/06/16 04:15:22;;;;;;;11.63;6.63;;;11.60;99.90;;;;;;5072133;28;20044;-43
2022/06/16 04:17:48;;;;;;;9.85;6.03;;;11.80;99.90;;;;;;5073368;28;20044;-45
2022/06/16 04:20:14;;;;;;;12.52;5.60;;;13.40;99.90;;;;;;5073308;28;20555;-44
2022/06/16 04:22:41;;;;;;;8.25;6.18;;;11.80;99.90;;;;;;5071563;28;20504;-43
2022/06/16 04:25:12;;;;;;;11.52;5.65;;;11.80;99.90;;;;;;5071975;28;20055;-43
2022/06/16 04:27:39;;;;;;;15.18;6.05;;;11.80;99.90;;;;;;5072511;28;20501;-44
2022/06/16 04:30:06;;;;;;;12.63;5.75;;;12.00;99.90;;;;;;5070067;28;20047;-44
2022/06/16 04:32:32;;;;;;;13.80;5.70;;;12.20;99.90;;;;;;5072076;28;20587;-45
2022/06/16 04:34:57;;;;;;;9.98;5.43;;;12.10;99.90;;;;;;5071873;28;20047;-45
2022/06/16 04:37:23;;;;;;;6.93;4.68;;;14.40;99.90;;;;;;5070642;28;20077;-42
2022/06/16 04:39:49;;;;;;;10.55;5.43;;;12.50;99.90;;;;;;5071746;28;20481;-43
2022/06/16 04:42:16;;;;;;;12.02;5.00;;;12.70;99.90;;;;;;5069606;28;20055;-45
2022/06/16 04:44:42;;;;;;;11.75;4.85;;;12.80;99.90;;;;;;5072241;28;20039;-43
2022/06/16 04:47:08;;;;;;;10.57;4.95;;;13.60;99.90;;;;;;5071404;28;20036;-43
2022/06/16 04:49:34;;;;;;;6.18;4.88;;;13.20;99.90;;;;;;5072414;28;20039;-43
2022/06/16 04:52:00;;;;;;;9.70;4.78;;;15.20;99.90;;;;;;5071383;28;20043;-44
2022/06/16 04:54:26;;;;;;;10.90;4.82;;;13.00;99.90;;;;;;5071077;28;20040;-43
2022/06/16 04:56:54;;;;;;;7.90;4.18;;;13.10;99.90;;;;;;5071467;28;20640;-43
2022/06/16 04:59:20;;;;;;;10.30;4.78;;;13.30;99.90;;;;;;5070815;28;20059;-43
2022/06/16 05:01:45;;;;;;;10.00;5.18;;;13.40;99.90;;;;;;5071651;28;20529;-43
2022/06/16 05:04:11;;;;;;;9.30;4.68;;;13.30;99.90;;;;;;5071335;28;20066;-43
2022/06/16 05:06:37;;;;;;;9.65;4.57;;;13.10;99.90;;;;;;5071795;28;20063;-44
2022/06/16 05:09:03;;;;;;;7.72;4.80;;;14.40;99.90;;;;;;5071256;28;20408;-42
2022/06/16 05:11:30;;;;;;;11.65;4.78;;;13.60;99.90;;;;;;5070944;28;20389;-44
2022/06/16 05:14:00;;;;;;;7.95;4.95;;;13.40;99.90;;;;;;5072430;28;20141;-43
2022/06/16 05:16:27;;;;;;;13.23;6.07;;;13.50;99.90;;;;;;5072642;28;20048;-44
2022/06/16 05:18:55;;;;;;;8.57;5.85;;;13.50;99.90;;;;;;5072940;28;20059;-43
2022/06/16 05:21:22;;;;;;;9.55;5.05;;;13.40;99.90;;;;;;5072924;28;20667;-44
2022/06/16 05:23:47;;;;;;;8.52;4.45;;;14.00;99.90;;;;;;5071619;28;20044;-43
2022/06/16 05:26:13;;;;;;;9.93;4.75;;;14.30;99.90;;;;;;5071990;28;20300;-43
2022/06/16 05:28:39;;;;;;;10.35;4.47;;;13.60;99.90;;;;;;5072732;28;20051;-43
2022/06/16 05:31:05;;;;;;;14.75;5.32;;;14.00;99.90;;;;;;5071582;28;20044;-44
2022/06/16 05:33:33;;;;;;;10.60;4.88;;;13.90;99.90;;;;;;5070938;28;20047;-43
2022/06/16 05:36:01;;;;;;;9.05;4.13;;;14.30;99.90;;;;;;5070245;28;20048;-43
2022/06/16 05:38:29;;;;;;;7.65;4.50;;;14.30;99.90;;;;;;5070064;28;20204;-43
2022/06/16 05:41:01;;;;;;;31.85;5.43;;;16.00;99.90;;;;;;5070582;28;20111;-45
2022/06/16 05:43:27;;;;;;;10.60;4.22;;;14.70;99.90;;;;;;5071168;28;20048;-44
2022/06/16 05:45:53;;;;;;;11.23;5.25;;;14.50;99.90;;;;;;5071152;28;20042;-45
2022/06/16 05:48:19;;;;;;;8.65;4.20;;;14.60;99.90;;;;;;5071395;28;20138;-45
2022/06/16 05:50:45;;;;;;;7.50;3.65;;;14.60;99.90;;;;;;5070353;28;20337;-44
2022/06/16 05:53:13;;;;;;;10.88;3.58;;;16.50;99.90;;;;;;5074226;28;20474;-43
2022/06/16 05:55:39;;;;;;;13.07;4.50;;;15.00;99.90;;;;;;5074515;28;20520;-45
2022/06/16 05:58:05;;;;;;;10.10;4.03;;;15.00;99.90;;;;;;5074523;28;20127;-43
2022/06/16 06:00:31;;;;;;;7.88;3.83;;;15.20;99.90;;;;;;5073039;28;20078;-43
2022/06/16 06:02:58;;;;;;;10.65;3.95;;;15.30;99.90;;;;;;5073286;28;20036;-46
2022/06/16 06:05:26;;;;;;;11.82;4.05;;;15.30;99.90;;;;;;5072689;28;20050;-45
2022/06/16 06:16:29;;;;;;;10.20;3.47;;;15.80;99.90;;;;;;5073739;28;21417;-46
2022/06/16 06:19:23;;;;;;;9.10;3.60;;;16.60;99.90;;;;;;5074620;28;20119;-44
2022/06/16 06:22:06;;;;;;;8.95;3.60;;;19.70;99.90;;;;;;5073616;28;20726;-45
2022/06/16 06:24:39;;;;;;;8.07;3.20;;;17.60;99.90;;;;;;5073864;28;20036;-46
2022/06/16 06:27:20;;;;;;;6.38;2.38;;;17.60;99.90;;;;;;5074294;28;20544;-44
2022/06/16 06:29:48;;;;;;;7.38;2.58;;;17.80;99.90;;;;;;5076112;28;20066;-44
2022/06/16 06:32:17;;;;;;;9.50;2.50;;;19.80;99.90;;;;;;5075256;28;20450;-44
2022/06/16 06:34:42;;;;;;;5.78;1.60;;;18.00;99.90;;;;;;5074821;28;20115;-44
2022/06/16 06:37:11;;;;;;;8.32;2.00;;;18.20;99.90;;;;;;5074737;28;20040;-46
2022/06/16 06:39:41;;;;;;;5.93;1.90;;;18.00;99.90;;;;;;5074709;28;20051;-45
2022/06/16 06:42:07;;;;;;;7.35;1.73;;;18.10;99.90;;;;;;5074409;28;21432;-45
2022/06/16 06:44:33;;;;;;;5.70;1.70;;;18.10;99.90;;;;;;5076011;28;20055;-44
2022/06/16 06:46:59;;;;;;;9.88;1.98;;;18.60;99.90;;;;;;5074258;28;21121;-46
2022/06/16 06:49:25;;;;;;;7.78;1.50;;;18.10;99.90;;;;;;5074020;28;21146;-45
2022/06/16 06:51:50;;;;;;;7.47;2.08;;;19.90;99.90;;;;;;5074911;28;20040;-45
2022/06/16 06:54:18;;;;;;;6.97;1.40;;;18.90;99.90;;;;;;5074480;28;20344;-46
2022/06/16 06:56:45;;;;;;;6.97;1.60;;;21.00;99.90;;;;;;5072676;28;20041;-48
2022/06/16 06:59:15;;;;;;;7.55;1.85;;;19.40;99.90;;;;;;5071923;28;20622;-45
2022/06/16 07:01:43;;;;;;;6.32;1.70;;;19.60;99.90;;;;;;5071653;28;20583;-45
2022/06/16 07:04:08;;;;;;;5.03;1.63;;;20.20;99.90;;;;;;5072822;28;20799;-46
2022/06/16 07:06:34;;;;;;;8.45;1.80;;;20.20;99.90;;;;;;5073430;28;20040;-45
2022/06/16 07:09:00;;;;;;;5.80;1.52;;;21.80;99.90;;;;;;5072408;28;20077;-44
2022/06/16 07:11:26;;;;;;;6.47;1.75;;;21.60;99.90;;;;;;5072433;28;20101;-44
2022/06/16 07:13:51;;;;;;;6.28;1.40;;;22.20;99.90;;;;;;5073589;28;20040;-48
2022/06/16 07:16:21;;;;;;;6.45;1.70;;;22.40;99.90;;;;;;5073625;28;20063;-44
2022/06/16 07:18:46;;;;;;;8.07;1.58;;;23.10;99.90;;;;;;5073385;28;20040;-44
2022/06/16 07:21:14;;;;;;;7.75;1.48;;;23.40;99.90;;;;;;5071388;28;20565;-47
2022/06/16 07:23:40;;;;;;;4.38;1.30;;;24.20;99.90;;;;;;5071986;28;20052;-47
2022/06/16 07:26:06;;;;;;;5.40;1.40;;;24.90;99.90;;;;;;5072894;28;20028;-48
2022/06/16 07:28:34;;;;;;;4.22;1.50;;;25.30;99.90;;;;;;5072822;28;20024;-45
2022/06/16 07:30:59;;;;;;;4.30;1.20;;;26.70;99.90;;;;;;5071863;28;20044;-45
2022/06/16 07:33:25;;;;;;;4.75;1.30;;;26.10;99.90;;;;;;5073165;28;20040;-47
2022/06/16 07:35:53;;;;;;;6.35;1.27;;;26.10;99.90;;;;;;5072722;28;20717;-48
2022/06/16 07:38:20;;;;;;;5.95;1.40;;;26.90;99.90;;;;;;5071899;28;20135;-46
2022/06/16 07:40:46;;;;;;;5.50;1.50;;;27.00;99.90;;;;;;5072174;28;20043;-50
2022/06/16 07:43:12;;;;;;;5.18;1.60;;;27.60;99.90;;;;;;5072755;28;20066;-46
2022/06/16 07:45:39;;;;;;;7.75;1.70;;;27.90;99.90;;;;;;5073937;28;20040;-50
2022/06/16 07:48:06;;;;;;;4.35;1.60;;;27.90;99.90;;;;;;5073938;28;20139;-48
2022/06/16 07:50:33;;;;;;;4.47;1.33;;;27.90;99.90;;;;;;5072831;28;20058;-49
2022/06/16 07:52:59;;;;;;;5.20;1.30;;;27.30;99.90;;;;;;5071590;28;20528;-45
2022/06/16 07:55:25;;;;;;;6.18;1.63;;;27.50;99.90;;;;;;5073075;28;20051;-45
2022/06/16 07:57:53;;;;;;;4.85;1.73;;;27.70;99.90;;;;;;5072298;28;20063;-45
2022/06/16 08:00:23;;;;;;;4.75;1.30;;;27.90;99.60;;;;;;5073761;28;20569;-47
2022/06/16 08:02:48;;;;;;;5.75;1.75;;;28.40;99.80;;;;;;5073409;28;20043;-50
2022/06/16 08:05:14;;;;;;;5.45;1.23;;;28.40;99.20;;;;;;5073111;28;20512;-44
2022/06/16 08:07:42;;;;;;;5.45;1.48;;;28.70;97.80;;;;;;5070278;28;20040;-47
2022/06/16 08:10:11;;;;;;;12.80;2.00;;;28.20;97.80;;;;;;5070615;28;20504;-48
2022/06/16 08:12:37;;;;;;;3.97;1.20;;;28.30;97.50;;;;;;5071552;28;20090;-48
2022/06/16 08:15:04;;;;;;;5.82;1.67;;;28.40;97.50;;;;;;5070425;28;20062;-47
2022/06/16 08:17:36;;;;;;;4.32;1.10;;;28.10;97.60;;;;;;5070720;28;20212;-49
2022/06/16 08:20:04;;;;;;;4.60;1.50;;;28.20;96.10;;;;;;5069844;28;20036;-47
2022/06/16 08:22:30;;;;;;;3.45;1.20;;;28.30;95.80;;;;;;5071069;28;20074;-49
2022/06/16 08:24:56;;;;;;;3.97;1.52;;;28.40;96.60;;;;;;5071865;28;20087;-48
2022/06/16 08:27:28;;;;;;;3.67;1.42;;;28.30;95.80;;;;;;5072640;28;20044;-50
2022/06/16 08:29:54;;;;;;;6.20;1.80;;;28.70;96.10;;;;;;5070531;28;20523;-46
2022/06/16 08:32:21;;;;;;;4.32;1.50;;;28.20;95.50;;;;;;5070789;28;20040;-46
2022/06/16 08:34:48;;;;;;;6.13;1.70;;;28.40;94.50;;;;;;5069069;28;20031;-50
2022/06/16 08:37:16;;;;;;;5.63;2.05;;;28.30;95.00;;;;;;5072076;28;20075;-48
2022/06/16 08:39:42;;;;;;;5.15;1.77;;;28.20;95.60;;;;;;5071841;28;20044;-47
2022/06/16 08:42:20;;;;;;;5.53;1.80;;;27.50;95.60;;;;;;5071452;28;20043;-45
2022/06/16 08:44:59;;;;;;;5.20;1.83;;;26.70;93.70;;;;;;5072470;28;20048;-45
2022/06/16 08:47:57;;;;;;;5.32;1.85;;;26.20;95.80;;;;;;5071789;28;20155;-46
2022/06/16 08:50:28;;;;;;;5.10;2.20;;;25.20;95.60;;;;;;5071305;28;20047;-48
2022/06/16 08:53:10;;;;;;;7.10;2.28;;;24.30;96.60;;;;;;5070696;28;21011;-47
2022/06/16 08:56:01;;;;;;;7.05;2.38;;;23.90;98.50;;;;;;5070707;28;20083;-45
2022/06/16 08:58:39;;;;;;;5.97;2.08;;;23.30;99.70;;;;;;5070792;28;20136;-45
2022/06/16 09:01:15;;;;;;;5.65;2.00;;;23.20;99.90;;;;;;5071928;28;20083;-45
2022/06/16 09:04:00;;;;;;;7.65;2.20;;;23.20;99.90;;;;;;5072308;28;20052;-49
2022/06/16 09:06:33;;;;;;;5.82;2.15;;;23.10;99.90;;;;;;5072632;28;20097;-46
2022/06/16 09:12:27;;;;;;;6.45;2.45;;;23.50;99.90;;;;;;5071101;28;20144;-50
2022/06/16 09:15:12;;;;;;;5.57;2.22;;;24.20;99.90;;;;;;5009888;28;20657;-48
2022/06/16 09:18:12;;;;;;;7.43;2.50;;;24.10;99.90;;;;;;4993329;28;20235;-47
2022/06/16 09:21:05;;;;;;;7.05;2.20;;;24.10;99.90;;;;;;5009668;28;20285;-49
2022/06/16 09:23:50;;;;;;;7.40;2.35;;;23.70;99.90;;;;;;5008728;28;20650;-47
2022/06/16 09:26:24;;;;;;;5.32;2.38;;;23.50;99.90;;;;;;4992346;28;20134;-50
2022/06/16 09:29:11;;;;;;;6.65;1.90;;;23.40;99.90;;;;;;5013094;28;20099;-49
2022/06/16 09:32:05;;;;;;;6.22;1.85;;;23.30;99.90;;;;;;5011698;28;20073;-47
2022/06/16 09:34:51;;;;;;;6.10;2.17;;;23.60;99.90;;;;;;4994766;28;20065;-46
2022/06/16 09:37:27;;;;;;;5.47;2.08;;;23.70;99.90;;;;;;4995489;28;20084;-48
2022/06/16 09:40:02;;;;;;;7.10;2.40;;;23.70;99.90;;;;;;4994257;28;20087;-43
2022/06/16 09:42:37;;;;;;;5.28;1.90;;;23.90;99.90;;;;;;5011776;28;20091;-46
2022/06/16 09:45:08;;;;;;;6.95;2.25;;;24.00;99.90;;;;;;5011665;28;20053;-46
2022/06/16 09:48:04;;;;;;;5.35;2.17;;;24.00;99.90;;;;;;5010872;28;20057;-45
2022/06/16 09:50:43;;;;;;;10.43;2.67;;;24.00;99.90;;;;;;4991180;28;20286;-46
2022/06/16 09:53:16;;;;;;;6.82;2.80;;;24.00;99.90;;;;;;5049489;28;20053;-45
2022/06/16 09:55:59;;;;;;;6.88;2.20;;;24.10;99.90;;;;;;5052142;28;20448;-48
2022/06/16 09:58:31;;;;;;;7.78;2.20;;;24.30;99.90;;;;;;5051387;28;20113;-49
2022/06/16 10:01:02;;;;;;;5.95;2.15;;;24.00;99.90;;;;;;5049637;28;20056;-45
2022/06/16 10:04:03;;;;;;;8.88;2.15;;;23.90;99.90;;;;;;5051820;28;20787;-46
2022/06/16 10:06:43;;;;;;;6.07;1.90;;;24.10;99.50;;;;;;5011846;28;20128;-46
2022/06/16 10:09:23;;;;;;;7.93;2.28;;;23.90;99.90;;;;;;5011721;28;20088;-49
2022/06/16 10:12:04;;;;;;;5.45;2.33;;;23.90;99.90;;;;;;5011390;28;20627;-46
2022/06/16 10:14:51;;;;;;;4.10;1.65;;;24.30;99.90;;;;;;5011069;28;21007;-45
2022/06/16 10:17:23;;;;;;;9.95;2.47;;;24.40;99.90;;;;;;5011742;28;20057;-48
2022/06/16 10:19:51;;;;;;;6.07;2.25;;;24.00;99.90;;;;;;5009312;28;20187;-45
2022/06/16 10:22:23;;;;;;;7.32;2.28;;;24.30;99.90;;;;;;5010402;28;20311;-47
2022/06/16 10:24:58;;;;;;;4.95;1.73;;;24.60;99.90;;;;;;5011371;28;20072;-47
2022/06/16 10:27:33;;;;;;;4.93;1.88;;;24.70;99.90;;;;;;5019332;28;20051;-49
2022/06/16 10:30:01;;;;;;;5.68;2.05;;;24.60;99.90;;;;;;5030902;28;20052;-48
2022/06/16 10:32:37;;;;;;;5.60;1.98;;;24.40;99.90;;;;;;5031030;28;22806;-45
2022/06/16 10:35:06;;;;;;;4.93;1.95;;;24.70;99.90;;;;;;5030805;28;20043;-45
2022/06/16 10:37:37;;;;;;;5.65;2.35;;;24.70;99.90;;;;;;5030299;28;20041;-44
2022/06/16 10:40:19;;;;;;;4.30;2.08;;;24.70;99.90;;;;;;5029839;28;20076;-45
2022/06/16 10:42:47;;;;;;;;;;;24.70;98.60;;;;;;5043899;28;20151;-44
2022/06/16 10:45:27;;;;;;;4.97;1.60;;;24.80;99.90;;;;;;5073792;28;19992;-44
2022/06/16 10:48:18;;;;;;;5.25;1.98;;;24.80;99.90;;;;;;5075558;28;20409;-44
2022/06/16 10:50:48;;;;;;;5.20;2.10;;;24.90;99.70;;;;;;5075535;28;20432;-47
2022/06/16 10:53:35;;;;;;;7.72;2.00;;;25.10;99.90;;;;;;5074393;28;20036;-44
2022/06/16 10:56:10;;;;;;;4.10;1.95;;;25.20;99.90;;;;;;5073051;28;20120;-45
2022/06/16 10:58:49;;;;;;;6.63;2.13;;;25.30;99.60;;;;;;5074601;28;20047;-45
2022/06/16 11:01:21;;;;;;;7.50;2.17;;;25.20;99.90;;;;;;5073017;28;20039;-44
2022/06/16 11:03:48;;;;;;;;;;;25.10;99.90;;;;;;5073801;28;20404;-44
2022/06/16 11:06:18;;;;;;;8.05;1.98;;;25.00;99.90;;;;;;5073520;28;20313;-45
2022/06/16 11:08:51;;;;;;;6.43;1.95;;;24.80;98.60;;;;;;5074342;28;20378;-44
2022/06/16 11:11:30;;;;;;;4.88;1.85;;;24.90;97.30;;;;;;5073834;28;20070;-44
2022/06/16 11:13:57;;;;;;;4.68;2.03;;;24.70;99.30;;;;;;5072138;28;20075;-45
2022/06/16 11:16:30;;;;;;;5.78;1.80;;;24.90;99.40;;;;;;5073073;28;20063;-48
2022/06/16 11:19:00;;;;;;;4.10;1.60;;;24.90;98.80;;;;;;5071700;28;20044;-44
2022/06/16 11:21:30;;;;;;;5.80;1.90;;;25.10;99.80;;;;;;5073653;28;20048;-44
2022/06/16 11:24:01;;;;;;;5.90;1.80;;;25.20;99.30;;;;;;5072859;28;21411;-45
2022/06/16 11:26:33;;;;;;;5.28;1.90;;;25.10;97.80;;;;;;5072621;28;20990;-48
2022/06/16 11:29:10;;;;;;;3.85;1.80;;;25.00;98.90;;;;;;5072347;28;20036;-43
2022/06/16 11:31:51;;;;;;;11.68;3.08;;;24.90;97.80;;;;;;5072315;28;20146;-44
2022/06/16 11:34:21;;;;;;;8.60;1.92;;;25.20;97.90;;;;;;5072339;28;20272;-44
2022/06/16 11:37:02;;;;;;;10.55;2.70;;;25.50;99.20;;;;;;5072934;28;20056;-49
2022/06/16 11:39:31;;;;;;;4.55;2.00;;;25.40;99.10;;;;;;5071854;28;20524;-45
2022/06/16 11:41:59;;;;;;;3.97;1.70;;;25.20;97.50;;;;;;5072753;28;20036;-45
2022/06/16 11:44:43;;;;;;;5.65;2.13;;;25.40;96.60;;;;;;5072142;28;22271;-44
2022/06/16 11:47:41;;;;;;;5.60;2.00;;;25.10;95.00;;;;;;5073019;28;20048;-44
2022/06/16 11:50:41;;;;;;;6.45;1.77;;;24.70;97.30;;;;;;5071700;28;20119;-44
2022/06/16 11:53:40;;;;;;;5.90;2.03;;;24.80;96.10;;;;;;5073179;28;20032;-44
2022/06/16 11:56:12;;;;;;;5.22;1.88;;;24.40;96.50;;;;;;5072126;28;20044;-44
2022/06/16 11:59:05;;;;;;;3.85;2.30;;;24.20;97.80;;;;;;5073599;28;20044;-51
2022/06/16 12:01:38;;;;;;;6.80;2.53;;;24.00;98.90;;;;;;5072720;28;20036;-44
2022/06/16 12:04:23;;;;;;;6.00;2.45;;;24.30;99.00;;;;;;5072679;28;20043;-49
2022/06/16 12:07:16;;;;;;;10.25;3.55;;;24.60;99.90;;;;;;5072098;28;20076;-46
2022/06/16 12:09:51;;;;;;;7.65;3.30;;;24.80;99.80;;;;;;5071111;28;20043;-45
2022/06/16 12:12:48;;;;;;;33.97;7.68;;;25.20;99.20;;;;;;5072386;28;20075;-45
2022/06/16 12:15:41;;;;;;;10.02;3.45;;;25.20;98.30;;;;;;5009007;28;20108;-50
2022/06/16 12:18:07;;;;;;;8.13;2.75;;;24.70;98.20;;;;;;5009517;28;20083;-50
2022/06/16 12:20:43;;;;;;;8.25;2.95;;;24.30;99.20;;;;;;5009007;28;20045;-43
2022/06/16 12:23:16;;;;;;;8.30;2.47;;;25.10;99.90;;;;;;5008534;28;20049;-46
2022/06/16 12:25:57;;;;;;;6.55;2.60;;;23.70;99.90;;;;;;5009003;28;21315;-47
2022/06/16 12:28:36;;;;;;;18.67;6.27;;;23.70;99.80;;;;;;5009737;28;20128;-44
2022/06/16 12:31:19;;;;;;;10.70;3.67;;;24.00;99.90;;;;;;5009562;28;20041;-43
2022/06/16 12:33:54;;;;;;;4.65;2.30;;;24.30;98.40;;;;;;5009132;28;20080;-46
2022/06/16 12:36:20;;;;;;;6.47;2.80;;;24.90;99.90;;;;;;5008489;28;20132;-44
2022/06/16 12:38:58;;;;;;;7.45;2.47;;;24.50;99.70;;;;;;5008915;28;20055;-45
2022/06/16 12:41:45;;;;;;;5.10;2.15;;;24.90;99.40;;;;;;5008157;28;20934;-45
2022/06/16 12:44:13;;;;;;;5.32;1.90;;;24.80;98.90;;;;;;5008587;28;20827;-43
2022/06/16 12:46:51;;;;;;;12.57;2.83;;;24.70;98.60;;;;;;5009497;28;20057;-45
2022/06/16 12:49:28;;;;;;;5.75;2.67;;;24.60;99.20;;;;;;4992299;28;20049;-44
2022/06/16 12:52:03;;;;;;;10.68;3.60;;;24.20;95.70;;;;;;5033172;28;20557;-44
2022/06/16 12:54:47;;;;;;;7.60;2.72;;;24.30;98.70;;;;;;5071254;28;20530;-45
2022/06/16 12:57:19;;;;;;;5.68;2.17;;;24.20;98.90;;;;;;5070979;28;20065;-44
2022/06/16 12:59:56;;;;;;;;;;;24.20;99.80;;;;;;5073919;28;20146;-44
2022/06/16 13:02:28;;;;;;;5.22;2.00;;;24.30;98.30;;;;;;5072189;28;19924;-44
2022/06/16 13:04:57;;;;;;;5.55;2.35;;;24.20;99.80;;;;;;5073533;28;20032;-43
2022/06/16 13:07:28;;;;;;;6.03;2.50;;;23.70;99.40;;;;;;5069644;28;20043;-44
2022/06/16 13:09:54;;;;;;;7.22;2.53;;;23.80;98.90;;;;;;5073471;28;20125;-43
2022/06/16 13:12:29;;;;;;;4.93;2.22;;;23.90;99.70;;;;;;5073504;28;20787;-43
2022/06/16 13:15:06;;;;;;;6.88;2.03;;;23.90;99.90;;;;;;5072147;28;20048;-45
2022/06/16 13:17:38;;;;;;;5.15;2.20;;;23.90;99.80;;;;;;5073192;28;20036;-43
2022/06/16 13:20:11;;;;;;;5.45;2.10;;;24.20;98.50;;;;;;5072874;28;20036;-44
2022/06/16 13:23:03;;;;;;;6.20;2.28;;;23.80;98.90;;;;;;5071101;28;20539;-43
2022/06/16 13:25:53;;;;;;;6.95;1.75;;;25.30;99.90;;;;;;5072070;28;20048;-48
2022/06/16 13:28:39;;;;;;;4.13;1.90;;;23.60;99.90;;;;;;5071384;28;20072;-43
2022/06/16 13:31:18;;;;;;;7.28;2.30;;;23.50;99.90;;;;;;5070314;28;20319;-44
2022/06/16 13:34:21;;;;;;;7.63;2.10;;;23.90;99.90;;;;;;5071647;28;20071;-44
2022/06/16 13:36:49;;;;;;;7.13;2.35;;;24.10;99.90;;;;;;5008231;28;20058;-43